createdAt,value
2017-06-04T00:00:52.410Z,81.77
2017-06-04T00:03:19.998Z,81.10
2017-06-04T00:05:47.520Z,82.79
2017-06-04T00:08:15.196Z,82.49
2017-06-04T00:10:42.723Z,82.29
2017-06-04T00:13:10.270Z,84.07
2017-06-04T00:15:37.843Z,83.47
2017-06-04T00:18:05.367Z,85.10
2017-06-04T00:20:32.935Z,85.25
2017-06-04T00:23:00.467Z,85.59
2017-06-04T00:25:28.278Z,84.67
2017-06-04T00:27:55.839Z,85.43
2017-06-04T00:30:23.363Z,85.92
2017-06-04T00:32:50.939Z,85.88
2017-06-04T00:35:18.483Z,86.11
2017-06-04T00:37:46.059Z,85.44
2017-06-04T00:40:13.575Z,84.88
2017-06-04T00:42:41.144Z,85.10
2017-06-04T00:45:08.686Z,84.85
2017-06-04T00:47:36.222Z,84.93
2017-06-04T00:50:03.778Z,85.08
2017-06-04T00:52:31.304Z,84.42
2017-06-04T00:54:58.872Z,84.61
2017-06-04T00:57:26.416Z,85.30
2017-06-04T00:59:54.040Z,85.53
2017-06-04T01:02:21.651Z,84.95
2017-06-04T01:04:49.172Z,85.25
2017-06-04T01:07:16.740Z,86.23
2017-06-04T01:09:44.284Z,86.24
2017-06-04T01:12:11.867Z,85.52
2017-06-04T01:14:39.407Z,85.87
2017-06-04T01:17:06.927Z,85.97
2017-06-04T01:19:34.489Z,85.82
2017-06-04T01:22:02.002Z,86.59
2017-06-04T01:24:29.544Z,85.67
2017-06-04T01:26:57.183Z,86.91
2017-06-04T01:29:24.779Z,86.17
2017-06-04T01:31:52.296Z,86.06
2017-06-04T01:34:19.855Z,85.94
2017-06-04T01:36:47.372Z,86.19
2017-06-04T01:39:14.933Z,85.92
2017-06-04T01:41:42.452Z,86.80
2017-06-04T01:44:09.995Z,85.91
2017-06-04T01:46:37.520Z,86.71
2017-06-04T01:49:05.081Z,86.34
2017-06-04T01:51:32.594Z,85.46
2017-06-04T01:54:00.144Z,86.28
2017-06-04T01:56:27.663Z,85.50
2017-06-04T01:58:55.244Z,86.52
2017-06-04T02:01:22.776Z,85.46
2017-06-04T02:03:50.300Z,85.15
2017-06-04T02:06:17.871Z,83.59
2017-06-04T02:08:45.494Z,85.13
2017-06-04T02:11:13.053Z,84.85
2017-06-04T02:13:40.583Z,85.34
2017-06-04T02:16:08.130Z,86.65
2017-06-04T02:18:35.647Z,86.08
2017-06-04T02:21:03.207Z,86.39
2017-06-04T02:23:30.733Z,87.08
2017-06-04T02:25:58.285Z,87.41
2017-06-04T02:28:25.821Z,87.26
2017-06-04T02:30:53.489Z,88.07
2017-06-04T02:33:21.005Z,87.33
2017-06-04T02:35:48.545Z,87.33
2017-06-04T02:38:16.071Z,87.35
2017-06-04T02:40:43.626Z,86.80
2017-06-04T02:43:11.163Z,87.17
2017-06-04T02:45:38.768Z,87.43
2017-06-04T02:48:06.282Z,87.04
2017-06-04T02:50:33.849Z,87.34
2017-06-04T02:53:01.379Z,87.57
2017-06-04T02:55:28.944Z,87.51
2017-06-04T02:57:56.478Z,87.27
2017-06-04T03:00:24.023Z,87.23
2017-06-04T03:02:51.649Z,86.97
2017-06-04T03:05:19.229Z,86.81
2017-06-04T03:07:46.761Z,87.76
2017-06-04T03:10:14.468Z,88.15
2017-06-04T03:12:41.994Z,86.73
2017-06-04T03:15:09.562Z,86.00
2017-06-04T03:17:37.155Z,85.62
2017-06-04T03:20:04.709Z,86.24
2017-06-04T03:22:32.264Z,86.06
2017-06-04T03:24:59.783Z,85.91
2017-06-04T03:27:27.423Z,86.92
2017-06-04T03:29:55.020Z,87.04
2017-06-04T03:32:22.585Z,86.72
2017-06-04T03:34:50.172Z,86.20
2017-06-04T03:37:17.858Z,86.53
2017-06-04T03:39:45.395Z,87.43
2017-06-04T03:42:12.960Z,88.08
2017-06-04T03:44:40.521Z,88.04
2017-06-04T03:47:08.050Z,86.74
2017-06-04T03:49:35.763Z,87.11
2017-06-04T03:52:03.343Z,87.07
2017-06-04T03:54:30.904Z,87.83
2017-06-04T03:56:58.539Z,87.29
2017-06-04T03:59:26.128Z,86.50
2017-06-04T04:01:53.644Z,87.40
2017-06-04T04:04:21.180Z,86.85
2017-06-04T04:06:48.722Z,86.07
2017-06-04T04:09:16.243Z,86.92
2017-06-04T04:11:43.815Z,87.24
2017-06-04T04:14:11.336Z,86.79
2017-06-04T04:16:38.907Z,88.21
2017-06-04T04:19:06.549Z,86.21
2017-06-04T04:21:34.172Z,85.21
2017-06-04T04:24:01.727Z,85.99
2017-06-04T04:26:29.248Z,86.08
2017-06-04T04:28:56.796Z,86.20
2017-06-04T04:31:24.315Z,85.62
2017-06-04T04:33:51.881Z,87.74
2017-06-04T04:36:19.433Z,87.12
2017-06-04T04:38:47.047Z,86.77
2017-06-04T04:41:14.604Z,85.89
2017-06-04T04:43:42.122Z,86.02
2017-06-04T04:46:09.667Z,85.61
2017-06-04T04:48:37.243Z,86.01
2017-06-04T04:51:04.801Z,83.80
2017-06-04T04:53:32.321Z,83.79
2017-06-04T04:55:59.839Z,85.05
2017-06-04T04:58:27.379Z,84.98
2017-06-04T05:00:54.912Z,84.93
2017-06-04T05:03:22.467Z,85.80
2017-06-04T05:05:49.984Z,85.62
2017-06-04T05:08:17.533Z,86.67
2017-06-04T05:10:45.096Z,85.49
2017-06-04T05:13:12.617Z,84.40
2017-06-04T05:15:40.188Z,85.40
2017-06-04T05:18:07.718Z,84.59
2017-06-04T05:20:35.315Z,84.09
2017-06-04T05:23:02.841Z,84.78
2017-06-04T05:25:31.156Z,84.33
2017-06-04T05:27:58.675Z,84.20
2017-06-04T05:30:26.251Z,84.12
2017-06-04T05:32:53.790Z,84.50
2017-06-04T05:35:21.319Z,83.87
2017-06-04T05:37:48.883Z,84.92
2017-06-04T05:40:16.421Z,84.79
2017-06-04T05:42:44.000Z,83.91
2017-06-04T05:45:11.639Z,84.96
2017-06-04T05:47:39.199Z,85.43
2017-06-04T05:50:06.740Z,86.50
2017-06-04T05:52:34.305Z,86.21
2017-06-04T05:55:01.824Z,86.44
2017-06-04T05:57:29.390Z,86.16
2017-06-04T05:59:56.918Z,85.68
2017-06-04T06:02:24.483Z,85.92
2017-06-04T06:04:52.021Z,84.81
2017-06-04T06:07:19.624Z,84.97
2017-06-04T06:09:47.146Z,84.16
2017-06-04T06:12:14.726Z,84.49
2017-06-04T06:14:42.238Z,82.23
2017-06-04T06:17:09.915Z,83.17
2017-06-04T06:19:37.439Z,83.06
2017-06-04T06:22:05.002Z,83.71
2017-06-04T06:24:32.635Z,83.26
2017-06-04T06:27:00.181Z,83.23
2017-06-04T06:29:27.815Z,83.79
2017-06-04T06:31:55.355Z,83.75
2017-06-04T06:34:22.931Z,84.08
2017-06-04T06:36:50.451Z,83.83
2017-06-04T06:39:18.014Z,83.15
2017-06-04T06:41:45.541Z,83.80
2017-06-04T06:44:13.143Z,83.39
2017-06-04T06:46:40.655Z,83.85
2017-06-04T06:49:08.231Z,83.69
2017-06-04T06:51:35.748Z,83.78
2017-06-04T06:54:03.282Z,84.58
2017-06-04T06:56:31.003Z,83.08
2017-06-04T06:58:58.564Z,83.06
2017-06-04T07:01:26.118Z,83.20
2017-06-04T07:03:53.674Z,81.92
2017-06-04T07:06:21.308Z,82.32
2017-06-04T07:08:48.842Z,82.29
2017-06-04T07:11:16.360Z,81.18
2017-06-04T07:13:43.930Z,80.73
2017-06-04T07:16:11.457Z,80.71
2017-06-04T07:18:39.006Z,79.69
2017-06-04T07:21:06.552Z,79.57
2017-06-04T07:23:34.083Z,79.80
2017-06-04T07:26:01.627Z,80.49
2017-06-04T07:28:29.162Z,80.09
2017-06-04T07:30:56.732Z,78.97
2017-06-04T07:33:24.240Z,79.27
2017-06-04T07:35:51.803Z,78.87
2017-06-04T07:38:19.315Z,78.60
2017-06-04T07:40:46.867Z,80.15
2017-06-04T07:43:14.414Z,79.55
2017-06-04T07:45:42.047Z,80.57
2017-06-04T07:48:09.591Z,81.66
2017-06-04T07:50:37.103Z,82.23
2017-06-04T07:53:04.672Z,82.22
2017-06-04T07:55:32.199Z,82.38
2017-06-04T07:57:59.732Z,80.93
2017-06-04T08:00:27.318Z,79.90
2017-06-04T08:02:54.928Z,79.70
2017-06-04T08:05:22.496Z,78.93
2017-06-04T08:07:50.239Z,79.55
2017-06-04T08:10:17.759Z,77.99
2017-06-04T08:12:45.304Z,76.65
2017-06-04T08:15:12.852Z,76.67
2017-06-04T08:17:40.367Z,75.86
2017-06-04T08:20:08.096Z,76.58
2017-06-04T08:22:35.612Z,76.26
2017-06-04T08:25:03.248Z,77.48
2017-06-04T08:27:30.778Z,76.45
2017-06-04T08:29:58.336Z,76.55
2017-06-04T08:32:25.868Z,74.86
2017-06-04T08:34:53.636Z,75.19
2017-06-04T08:37:21.336Z,75.02
2017-06-04T08:39:48.922Z,74.91
2017-06-04T08:42:16.461Z,74.83
2017-06-04T08:44:44.024Z,75.34
2017-06-04T08:47:11.580Z,73.63
2017-06-04T08:49:39.188Z,72.34
2017-06-04T08:52:06.740Z,72.65
2017-06-04T08:54:34.408Z,71.77
2017-06-04T08:57:01.918Z,71.75
2017-06-04T08:59:29.410Z,70.73
2017-06-04T09:01:57.147Z,70.68
2017-06-04T09:04:24.667Z,70.61
2017-06-04T09:06:52.258Z,70.49
2017-06-04T09:09:19.775Z,70.70
2017-06-04T09:11:47.335Z,70.92
2017-06-04T09:14:14.958Z,70.19
2017-06-04T09:16:42.520Z,69.72
2017-06-04T09:19:10.219Z,68.23
2017-06-04T09:21:37.822Z,67.19
2017-06-04T09:24:05.326Z,67.13
2017-06-04T09:26:33.727Z,67.50
2017-06-04T09:29:01.241Z,66.85
2017-06-04T09:31:28.798Z,66.18
2017-06-04T09:33:56.327Z,66.15
2017-06-04T09:36:24.086Z,64.50
2017-06-04T09:38:51.622Z,64.02
2017-06-04T09:41:19.171Z,61.35
2017-06-04T09:43:46.731Z,62.22
2017-06-04T09:46:14.303Z,61.21
2017-06-04T09:48:41.867Z,59.65
2017-06-04T09:51:09.407Z,57.86
2017-06-04T09:53:37.592Z,59.17
2017-06-04T09:56:05.128Z,60.36
2017-06-04T09:58:32.674Z,60.35
2017-06-04T10:01:00.361Z,57.29
2017-06-04T10:03:27.906Z,58.08
2017-06-04T10:05:55.420Z,56.44
2017-06-04T10:08:22.994Z,56.07
2017-06-04T10:10:50.511Z,56.43
2017-06-04T10:13:18.188Z,56.63
2017-06-04T10:15:45.711Z,57.69
2017-06-04T10:18:13.244Z,57.47
2017-06-04T10:20:40.805Z,56.90
2017-06-04T10:23:08.384Z,51.45
2017-06-04T10:25:35.955Z,50.93
2017-06-04T10:28:03.487Z,52.22
2017-06-04T10:30:31.145Z,54.71
2017-06-04T10:32:58.667Z,56.33
2017-06-04T10:35:26.212Z,52.34
2017-06-04T10:37:53.783Z,52.21
2017-06-04T10:40:21.327Z,52.54
2017-06-04T10:42:49.018Z,52.25
2017-06-04T10:45:16.635Z,53.85
2017-06-04T10:47:44.170Z,53.09
2017-06-04T10:50:11.704Z,52.48
2017-06-04T10:52:39.220Z,52.67
2017-06-04T10:55:06.783Z,52.59
2017-06-04T10:57:34.357Z,52.24
2017-06-04T11:00:01.976Z,52.84
2017-06-04T11:02:29.527Z,52.72
2017-06-04T11:04:57.220Z,53.59
2017-06-04T11:07:24.757Z,53.72
2017-06-04T11:09:52.415Z,53.96
2017-06-04T11:12:20.022Z,53.53
2017-06-04T11:14:47.560Z,52.53
2017-06-04T11:17:15.137Z,52.16
2017-06-04T11:19:42.690Z,52.62
2017-06-04T11:22:10.377Z,52.38
2017-06-04T11:24:37.896Z,51.28
2017-06-04T11:27:05.515Z,51.69
2017-06-04T11:29:33.087Z,52.10
2017-06-04T11:32:00.687Z,51.49
2017-06-04T11:34:28.256Z,51.95
2017-06-04T11:36:55.775Z,51.95
2017-06-04T11:39:23.518Z,51.70
2017-06-04T11:41:51.035Z,52.08
2017-06-04T11:44:18.616Z,51.51
2017-06-04T11:46:46.185Z,51.13
2017-06-04T11:49:13.855Z,52.11
2017-06-04T11:51:41.633Z,52.39
2017-06-04T11:54:09.171Z,53.28
2017-06-04T11:56:36.686Z,53.28
2017-06-04T11:59:04.268Z,53.20
2017-06-04T12:01:31.820Z,53.55
2017-06-04T12:03:59.428Z,52.15
2017-06-04T12:06:27.059Z,51.50
2017-06-04T12:08:54.559Z,52.46
2017-06-04T12:11:22.102Z,52.24
2017-06-04T12:13:49.703Z,52.80
2017-06-04T12:16:17.295Z,53.99
2017-06-04T12:18:44.855Z,55.26
2017-06-04T12:21:12.450Z,56.00
2017-06-04T12:23:40.055Z,56.39
2017-06-04T12:26:07.623Z,55.14
2017-06-04T12:28:35.222Z,55.96
2017-06-04T12:31:02.764Z,56.12
2017-06-04T12:33:30.288Z,56.39
2017-06-04T12:35:57.833Z,56.67
2017-06-04T12:38:25.365Z,56.94
2017-06-04T12:40:52.911Z,56.38
2017-06-04T12:43:20.439Z,56.82
2017-06-04T12:45:47.994Z,57.31
2017-06-04T12:48:15.539Z,56.54
2017-06-04T12:50:43.093Z,56.08
2017-06-04T12:53:10.691Z,55.58
2017-06-04T12:55:38.241Z,56.00
2017-06-04T12:58:05.796Z,56.10
2017-06-04T13:00:33.314Z,55.30
2017-06-04T13:03:00.905Z,54.52
2017-06-04T13:05:28.444Z,56.20
2017-06-04T13:07:55.979Z,56.46
2017-06-04T13:10:23.523Z,58.33
2017-06-04T13:12:51.057Z,58.72
2017-06-04T13:15:18.632Z,56.95
2017-06-04T13:17:46.155Z,53.21
2017-06-04T13:20:13.698Z,53.90
2017-06-04T13:22:41.267Z,54.93
2017-06-04T13:25:08.879Z,55.52
2017-06-04T13:27:36.600Z,56.23
2017-06-04T13:30:04.159Z,55.99
2017-06-04T13:32:31.684Z,55.78
2017-06-04T13:34:59.244Z,55.10
2017-06-04T13:37:26.755Z,55.53
2017-06-04T13:39:54.319Z,55.42
2017-06-04T13:42:21.921Z,55.50
2017-06-04T13:44:49.455Z,55.95
2017-06-04T13:47:16.982Z,55.98
2017-06-04T13:49:44.656Z,56.28
2017-06-04T13:52:12.203Z,55.92
2017-06-04T13:54:39.967Z,54.32
2017-06-04T13:57:07.543Z,53.55
2017-06-04T13:59:35.133Z,54.15
2017-06-04T14:02:02.674Z,55.15
2017-06-04T14:04:30.307Z,56.59
2017-06-04T14:06:57.845Z,56.83
2017-06-04T14:09:25.387Z,56.81
2017-06-04T14:11:52.966Z,56.47
2017-06-04T14:14:20.601Z,55.87
2017-06-04T14:16:48.120Z,57.10
2017-06-04T14:19:15.635Z,55.53
2017-06-04T14:21:43.534Z,57.26
2017-06-04T14:24:11.520Z,56.84
2017-06-04T14:26:39.448Z,54.36
2017-06-04T14:29:07.387Z,51.77
2017-06-04T14:31:35.289Z,50.30
2017-06-04T14:34:03.553Z,49.36
2017-06-04T14:36:31.309Z,46.30
2017-06-04T14:38:59.157Z,45.64
2017-06-04T14:41:26.998Z,47.61
2017-06-04T14:43:55.180Z,47.84
2017-06-04T14:46:23.475Z,47.75
2017-06-04T14:48:51.141Z,48.35
2017-06-04T14:51:18.716Z,47.77
2017-06-04T14:53:46.287Z,48.40
2017-06-04T14:56:13.801Z,48.46
2017-06-04T14:58:42.077Z,48.88
2017-06-04T15:01:11.746Z,48.49
2017-06-04T15:03:40.575Z,48.74
2017-06-04T15:06:09.366Z,49.20
2017-06-04T15:08:37.388Z,47.71
2017-06-04T15:11:05.696Z,46.97
2017-06-04T15:13:34.795Z,47.78
2017-06-04T15:16:03.749Z,47.21
2017-06-04T15:18:32.395Z,46.98
2017-06-04T15:21:00.484Z,47.48
2017-06-04T15:23:29.921Z,47.58
2017-06-04T15:25:58.291Z,48.33
2017-06-04T15:28:27.158Z,48.70
2017-06-04T15:30:56.951Z,47.23
2017-06-04T15:33:25.021Z,46.25
2017-06-04T15:35:54.044Z,46.08
2017-06-04T15:38:21.825Z,46.63
2017-06-04T15:40:49.720Z,46.57
2017-06-04T15:43:20.533Z,47.83
2017-06-04T15:45:49.579Z,48.10
2017-06-04T15:48:17.871Z,48.42
2017-06-04T15:50:45.975Z,48.70
2017-06-04T15:53:13.988Z,48.45
2017-06-04T15:55:42.017Z,48.90
2017-06-04T15:58:10.129Z,48.91
2017-06-04T16:00:37.743Z,49.19
2017-06-04T16:03:05.261Z,49.92
2017-06-04T16:05:32.848Z,50.35
2017-06-04T16:08:00.377Z,50.57
2017-06-04T16:10:28.189Z,50.19
2017-06-04T16:12:55.868Z,50.58
2017-06-04T16:15:23.557Z,51.18
2017-06-04T16:17:51.149Z,50.01
2017-06-04T16:20:18.867Z,50.55
2017-06-04T16:22:46.450Z,50.46
2017-06-04T16:25:14.011Z,50.12
2017-06-04T16:27:41.742Z,50.76
2017-06-04T16:30:09.264Z,49.95
2017-06-04T16:32:36.878Z,48.92
2017-06-04T16:35:04.502Z,48.16
2017-06-04T16:37:32.105Z,47.94
2017-06-04T16:39:59.693Z,47.83
2017-06-04T16:42:27.360Z,47.15
2017-06-04T16:44:54.994Z,46.79
2017-06-04T16:47:22.559Z,46.35
2017-06-04T16:49:50.123Z,46.40
2017-06-04T16:52:17.701Z,47.19
2017-06-04T16:54:45.277Z,47.57
2017-06-04T16:57:12.870Z,47.40
2017-06-04T16:59:40.442Z,47.79
2017-06-04T17:02:07.988Z,46.94
2017-06-04T17:04:35.543Z,47.85
2017-06-04T17:07:03.100Z,48.30
2017-06-04T17:09:30.612Z,47.81
2017-06-04T17:11:58.181Z,47.75
2017-06-04T17:14:25.721Z,48.42
2017-06-04T17:16:53.303Z,48.12
2017-06-04T17:19:20.879Z,47.75
2017-06-04T17:21:48.523Z,47.49
2017-06-04T17:24:16.068Z,47.64
2017-06-04T17:26:43.628Z,47.67
2017-06-04T17:29:11.172Z,48.46
2017-06-04T17:31:38.723Z,48.48
2017-06-04T17:34:06.323Z,48.29
2017-06-04T17:36:33.891Z,48.20
2017-06-04T17:39:01.723Z,48.06
2017-06-04T17:41:29.240Z,48.39
2017-06-04T17:43:56.814Z,48.52
2017-06-04T17:46:24.327Z,48.03
2017-06-04T17:48:51.857Z,48.50
2017-06-04T17:51:19.373Z,48.07
2017-06-04T17:53:46.916Z,48.28
2017-06-04T17:56:14.431Z,48.15
2017-06-04T17:58:41.995Z,48.85
2017-06-04T18:01:09.603Z,48.55
2017-06-04T18:03:37.494Z,49.19
2017-06-04T18:06:05.025Z,49.44
2017-06-04T18:08:32.589Z,49.67
2017-06-04T18:11:00.112Z,49.29
2017-06-04T18:13:27.728Z,49.85
2017-06-04T18:15:55.326Z,50.17
2017-06-04T18:18:22.955Z,50.00
2017-06-04T18:20:50.499Z,49.75
2017-06-04T18:23:18.111Z,49.71
2017-06-04T18:25:45.645Z,49.66
2017-06-04T18:28:13.145Z,49.77
2017-06-04T18:30:40.691Z,50.05
2017-06-04T18:33:08.262Z,49.74
2017-06-04T18:35:35.817Z,49.48
2017-06-04T18:38:03.350Z,49.31
2017-06-04T18:40:30.979Z,49.57
2017-06-04T18:42:58.496Z,49.25
2017-06-04T18:45:26.047Z,48.55
2017-06-04T18:47:53.529Z,48.78
2017-06-04T18:50:21.076Z,49.06
2017-06-04T18:52:48.649Z,49.53
2017-06-04T18:55:16.171Z,49.69
2017-06-04T18:57:43.723Z,49.79
2017-06-04T19:00:11.283Z,49.97
2017-06-04T19:02:38.813Z,49.95
2017-06-04T19:05:06.367Z,50.40
2017-06-04T19:07:33.882Z,50.38
2017-06-04T19:10:01.452Z,50.57
2017-06-04T19:12:29.010Z,50.39
2017-06-04T19:14:56.554Z,50.37
2017-06-04T19:17:24.099Z,50.72
2017-06-04T19:19:51.629Z,50.66
2017-06-04T19:22:19.193Z,50.50
2017-06-04T19:24:46.823Z,51.67
2017-06-04T19:27:14.396Z,51.13
2017-06-04T19:29:41.933Z,51.07
2017-06-04T19:32:09.515Z,51.45
2017-06-04T19:34:37.081Z,51.69
2017-06-04T19:37:04.615Z,52.66
2017-06-04T19:39:32.150Z,51.29
2017-06-04T19:41:59.807Z,51.95
2017-06-04T19:44:27.398Z,52.03
2017-06-04T19:46:54.926Z,52.60
2017-06-04T19:49:22.643Z,52.73
2017-06-04T19:51:50.167Z,53.21
2017-06-04T19:54:17.710Z,51.79
2017-06-04T19:56:45.268Z,51.36
2017-06-04T19:59:12.799Z,51.28
2017-06-04T20:01:40.347Z,49.64
2017-06-04T20:04:07.878Z,50.44
2017-06-04T20:06:35.425Z,49.81
2017-06-04T20:09:02.956Z,49.23
2017-06-04T20:11:30.507Z,49.63
2017-06-04T20:13:58.035Z,49.37
2017-06-04T20:16:25.620Z,48.66
2017-06-04T20:18:53.161Z,47.59
2017-06-04T20:21:20.695Z,47.42
2017-06-04T20:23:48.350Z,46.85
2017-06-04T20:26:15.962Z,46.94
2017-06-04T20:28:43.484Z,46.94
2017-06-04T20:31:10.999Z,46.81
2017-06-04T20:33:39.384Z,46.65
2017-06-04T20:36:06.907Z,45.57
2017-06-04T20:38:34.484Z,45.13
2017-06-04T20:41:02.023Z,45.38
2017-06-04T20:43:29.608Z,45.13
2017-06-04T20:45:57.172Z,44.97
2017-06-04T20:48:24.750Z,45.05
2017-06-04T20:50:52.299Z,44.99
2017-06-04T20:53:19.864Z,45.51
2017-06-04T20:55:47.395Z,45.36
2017-06-04T20:58:15.050Z,45.50
2017-06-04T21:00:42.575Z,45.08
2017-06-04T21:03:10.155Z,45.04
2017-06-04T21:05:37.736Z,44.67
2017-06-04T21:08:05.287Z,44.68
2017-06-04T21:10:32.876Z,44.73
2017-06-04T21:13:00.479Z,44.90
2017-06-04T21:15:28.112Z,44.73
2017-06-04T21:17:55.664Z,45.04
2017-06-04T21:20:23.348Z,44.96
2017-06-04T21:22:50.906Z,44.78
2017-06-04T21:25:18.495Z,44.75
2017-06-04T21:27:46.026Z,44.82
2017-06-04T21:30:13.552Z,44.61
2017-06-04T21:32:41.172Z,45.05
2017-06-04T21:35:08.808Z,45.22
2017-06-04T21:37:36.352Z,45.43
2017-06-04T21:40:03.926Z,45.63
2017-06-04T21:42:31.567Z,45.67
2017-06-04T21:44:59.084Z,45.62
2017-06-04T21:47:26.655Z,45.89
2017-06-04T21:49:54.239Z,45.73
2017-06-04T21:52:21.782Z,45.73
2017-06-04T21:54:49.383Z,46.19
2017-06-04T21:57:16.956Z,46.20
2017-06-04T21:59:44.499Z,45.95
2017-06-04T22:02:12.063Z,45.88
2017-06-04T22:04:39.587Z,45.46
2017-06-04T22:07:07.142Z,45.27
2017-06-04T22:09:34.783Z,45.57
2017-06-04T22:12:02.379Z,46.01
2017-06-04T22:14:29.943Z,45.92
2017-06-04T22:16:57.503Z,46.41
2017-06-04T22:19:25.069Z,46.63
2017-06-04T22:21:52.585Z,47.19
2017-06-04T22:24:20.132Z,47.51
2017-06-04T22:26:47.675Z,47.59
2017-06-04T22:29:15.249Z,48.00
2017-06-04T22:31:42.764Z,48.26
2017-06-04T22:34:10.411Z,48.46
2017-06-04T22:36:37.982Z,48.79
2017-06-04T22:39:05.520Z,49.50
2017-06-04T22:41:33.065Z,49.93
2017-06-04T22:44:00.636Z,49.23
2017-06-04T22:46:28.175Z,50.42
2017-06-04T22:48:55.688Z,50.15
2017-06-04T22:51:23.226Z,51.54
2017-06-04T22:53:50.740Z,51.31
2017-06-04T22:56:18.284Z,52.02
2017-06-04T22:58:45.823Z,51.97
2017-06-04T23:01:13.367Z,52.87
2017-06-04T23:03:40.887Z,53.36
2017-06-04T23:06:08.468Z,52.98
2017-06-04T23:08:35.975Z,53.42
2017-06-04T23:11:03.479Z,53.69
2017-06-04T23:13:31.033Z,53.30
2017-06-04T23:15:58.555Z,53.25
2017-06-04T23:18:26.125Z,52.88
2017-06-04T23:20:53.603Z,53.01
2017-06-04T23:23:21.172Z,52.24
2017-06-04T23:25:48.689Z,51.94
2017-06-04T23:28:16.199Z,51.58
2017-06-04T23:30:43.840Z,51.98
2017-06-04T23:33:11.361Z,52.06
2017-06-04T23:35:38.932Z,53.10
2017-06-04T23:38:06.590Z,53.73
2017-06-04T23:40:34.127Z,54.04
2017-06-04T23:43:01.655Z,54.92
2017-06-04T23:45:29.198Z,55.62
2017-06-04T23:47:56.715Z,55.79
2017-06-04T23:50:24.248Z,56.54
2017-06-04T23:52:51.755Z,56.57
2017-06-04T23:55:19.392Z,57.22
2017-06-04T23:57:46.951Z,57.41
